createdAt,value
2019-06-08T00:01:18.201Z,100393.51
2019-06-08T00:03:43.878Z,100384.66
2019-06-08T00:06:10.617Z,100385.20
2019-06-08T00:08:37.377Z,100379.37
2019-06-08T00:11:04.110Z,100361.32
2019-06-08T00:13:30.854Z,100380.98
2019-06-08T00:15:57.700Z,100389.37
2019-06-08T00:18:24.444Z,100387.85
2019-06-08T00:20:51.247Z,100390.33
2019-06-08T00:23:17.923Z,100407.48
2019-06-08T00:25:44.658Z,100401.10
2019-06-08T00:28:11.406Z,100398.20
2019-06-08T00:30:39.230Z,100403.36
2019-06-08T00:33:04.923Z,100413.83
2019-06-08T00:35:31.690Z,100408.09
2019-06-08T00:37:58.468Z,100414.32
2019-06-08T00:40:25.284Z,100425.98
2019-06-08T00:42:51.950Z,100451.73
2019-06-08T00:45:20.024Z,100453.39
2019-06-08T00:47:47.980Z,100457.15
2019-06-08T00:50:12.174Z,100464.34
2019-06-08T00:52:38.906Z,100465.36
2019-06-08T00:55:05.713Z,100463.65
2019-06-08T00:57:32.466Z,100455.17
2019-06-08T00:59:59.202Z,100455.78
2019-06-08T01:02:26.835Z,100483.59
2019-06-08T01:04:52.666Z,100483.28
2019-06-08T01:07:19.940Z,100484.20
2019-06-08T01:09:46.144Z,100480.64
2019-06-08T01:12:12.913Z,100477.50
2019-06-08T01:14:39.647Z,100489.10
2019-06-08T01:17:06.410Z,100499.44
2019-06-08T01:19:33.135Z,100507.49
2019-06-08T01:21:59.892Z,100503.39
2019-06-08T01:24:27.817Z,100513.05
2019-06-08T01:26:53.366Z,100522.78
2019-06-08T01:29:20.227Z,100539.97
2019-06-08T01:31:46.858Z,100542.24
2019-06-08T01:34:13.598Z,100541.62
2019-06-08T01:36:40.319Z,100552.74
2019-06-08T01:39:07.070Z,100543.23
2019-06-08T01:41:33.813Z,100537.67
2019-06-08T01:44:00.578Z,100522.60
2019-06-08T01:46:28.266Z,100516.88
2019-06-08T01:48:54.066Z,100504.59
2019-06-08T01:51:20.830Z,100509.48
2019-06-08T01:53:47.562Z,100522.27
2019-06-08T01:56:14.533Z,100535.55
2019-06-08T01:58:41.268Z,100525.23
2019-06-08T02:01:08.002Z,100533.72
2019-06-08T02:03:34.939Z,100522.73
2019-06-08T02:06:01.542Z,100515.55
2019-06-08T02:08:28.645Z,100522.91
2019-06-08T02:10:55.018Z,100527.83
2019-06-08T02:13:21.738Z,100524.22
2019-06-08T02:15:48.483Z,100522.91
2019-06-08T02:18:15.222Z,100529.45
2019-06-08T02:20:42.010Z,100517.99
2019-06-08T02:23:08.725Z,100531.77
2019-06-08T02:25:35.766Z,100531.78
2019-06-08T02:28:02.783Z,100522.28
2019-06-08T02:30:31.190Z,100532.94
2019-06-08T02:32:56.463Z,100538.67
2019-06-08T02:35:23.208Z,100543.77
2019-06-08T02:37:49.934Z,100539.37
2019-06-08T02:40:16.696Z,100547.72
2019-06-08T02:42:43.417Z,100551.32
2019-06-08T02:45:10.178Z,100550.34
2019-06-08T02:47:36.949Z,100559.50
2019-06-08T02:50:04.247Z,100562.13
2019-06-08T02:52:31.910Z,100560.65
2019-06-08T02:54:57.850Z,100559.98
2019-06-08T02:57:24.593Z,100558.04
2019-06-08T02:59:51.599Z,100556.23
2019-06-08T03:02:18.322Z,100547.90
2019-06-08T03:04:45.106Z,100556.88
2019-06-08T03:07:11.827Z,100561.95
2019-06-08T03:09:38.692Z,100557.38
2019-06-08T03:12:05.287Z,100573.23
2019-06-08T03:14:33.371Z,100570.45
2019-06-08T03:16:58.787Z,100567.02
2019-06-08T03:19:25.515Z,100561.62
2019-06-08T03:21:52.239Z,100573.07
2019-06-08T03:24:18.952Z,100579.78
2019-06-08T03:26:45.700Z,100585.02
2019-06-08T03:29:12.424Z,100583.55
2019-06-08T03:31:49.704Z,100583.23
2019-06-08T03:34:06.029Z,100587.16
2019-06-08T03:36:38.586Z,100596.77
2019-06-08T03:38:59.495Z,100598.70
2019-06-08T03:41:26.240Z,100611.92
2019-06-08T03:43:52.954Z,100622.25
2019-06-08T03:46:19.703Z,100625.07
2019-06-08T03:48:46.628Z,100632.69
2019-06-08T03:51:13.183Z,100629.29
2019-06-08T03:53:40.524Z,100624.77
2019-06-08T03:56:06.663Z,100639.50
2019-06-08T03:58:34.302Z,100646.20
2019-06-08T04:01:00.142Z,100653.27
2019-06-08T04:03:26.868Z,100655.77
2019-06-08T04:05:53.607Z,100656.09
2019-06-08T04:08:20.430Z,100656.41
2019-06-08T04:10:47.194Z,100661.31
2019-06-08T04:13:13.929Z,100668.66
2019-06-08T04:15:42.144Z,100673.78
2019-06-08T04:18:07.415Z,100670.19
2019-06-08T04:20:34.160Z,100678.86
2019-06-08T04:23:00.906Z,100675.06
2019-06-08T04:25:27.619Z,100683.12
2019-06-08T04:27:54.350Z,100691.97
2019-06-08T04:30:21.095Z,100700.80
2019-06-08T04:32:49.667Z,100702.11
2019-06-08T04:35:14.586Z,100709.81
2019-06-08T04:37:42.672Z,100710.14
2019-06-08T04:40:08.071Z,100717.02
2019-06-08T04:42:34.795Z,100727.41
2019-06-08T04:45:01.546Z,100738.05
2019-06-08T04:47:28.278Z,100736.95
2019-06-08T04:49:55.011Z,100747.20
2019-06-08T04:52:21.759Z,100740.24
2019-06-08T04:54:49.761Z,100732.92
2019-06-08T04:57:15.250Z,100724.73
2019-06-08T04:59:43.867Z,100720.32
2019-06-08T05:02:08.727Z,100734.05
2019-06-08T05:04:35.467Z,100736.38
2019-06-08T05:07:02.213Z,100724.40
2019-06-08T05:09:28.939Z,100724.25
2019-06-08T05:11:55.696Z,100726.38
2019-06-08T05:14:22.447Z,100735.87
2019-06-08T05:16:49.701Z,100753.70
2019-06-08T05:19:15.920Z,100744.39
2019-06-08T05:21:43.530Z,100744.73
2019-06-08T05:24:09.479Z,100739.30
2019-06-08T05:26:36.238Z,100755.22
2019-06-08T05:29:03.100Z,100755.01
2019-06-08T05:31:29.866Z,100758.47
2019-06-08T05:33:56.582Z,100769.13
2019-06-08T05:36:23.501Z,100757.80
2019-06-08T05:38:50.227Z,100764.88
2019-06-08T05:41:17.014Z,100777.44
2019-06-08T05:43:43.709Z,100781.23
2019-06-08T05:46:10.461Z,100786.98
2019-06-08T05:48:37.200Z,100798.56
2019-06-08T05:51:04.553Z,100801.80
2019-06-08T05:53:30.698Z,100804.26
2019-06-08T05:55:57.446Z,100813.59
2019-06-08T05:58:24.171Z,100801.02
2019-06-08T06:00:50.908Z,100798.43
2019-06-08T06:03:17.646Z,100799.74
2019-06-08T06:05:44.411Z,100831.36
2019-06-08T06:08:18.830Z,100820.71
2019-06-08T06:10:37.970Z,100805.64
2019-06-08T06:13:04.697Z,100818.48
2019-06-08T06:15:31.459Z,100822.44
2019-06-08T06:17:58.185Z,100815.72
2019-06-08T06:20:24.922Z,100830.47
2019-06-08T06:22:52.556Z,100830.54
2019-06-08T06:25:18.394Z,100832.05
2019-06-08T06:27:45.558Z,100835.50
2019-06-08T06:30:11.879Z,100844.20
2019-06-08T06:32:38.617Z,100852.16
2019-06-08T06:35:05.350Z,100838.41
2019-06-08T06:37:32.115Z,100845.80
2019-06-08T06:39:58.838Z,100849.11
2019-06-08T06:42:25.604Z,100838.13
2019-06-08T06:44:52.520Z,100848.61
2019-06-08T06:47:19.114Z,100849.66
2019-06-08T06:49:46.397Z,100869.16
2019-06-08T06:52:12.661Z,100849.66
2019-06-08T06:54:39.398Z,100852.45
2019-06-08T06:57:06.150Z,100857.31
2019-06-08T06:59:32.904Z,100857.84
2019-06-08T07:01:59.931Z,100864.99
2019-06-08T07:04:26.666Z,100858.49
2019-06-08T07:06:54.418Z,100852.26
2019-06-08T07:09:20.435Z,100875.25
2019-06-08T07:11:47.190Z,100864.38
2019-06-08T07:14:13.934Z,100871.61
2019-06-08T07:16:40.674Z,100866.05
2019-06-08T07:19:07.406Z,100871.58
2019-06-08T07:21:41.656Z,100869.11
2019-06-08T07:24:00.893Z,100857.55
2019-06-08T07:26:27.652Z,100865.97
2019-06-08T07:28:55.348Z,100868.30
2019-06-08T07:31:21.148Z,100856.34
2019-06-08T07:33:48.744Z,100851.04
2019-06-08T07:36:14.611Z,100843.44
2019-06-08T07:38:41.334Z,100845.54
2019-06-08T07:41:08.078Z,100835.58
2019-06-08T07:43:34.794Z,100822.41
2019-06-08T07:46:01.535Z,100819.70
2019-06-08T07:48:28.290Z,100817.74
2019-06-08T07:50:56.278Z,100834.41
2019-06-08T07:53:21.781Z,100823.01
2019-06-08T07:55:49.958Z,100839.32
2019-06-08T07:58:15.339Z,100848.77
2019-06-08T08:00:42.068Z,100843.16
2019-06-08T08:03:08.814Z,100846.10
2019-06-08T08:05:35.522Z,100851.52
2019-06-08T08:08:02.259Z,100850.86
2019-06-08T08:10:28.990Z,100851.19
2019-06-08T08:12:56.744Z,100853.00
2019-06-08T08:15:22.441Z,100849.86
2019-06-08T08:17:49.207Z,100851.70
2019-06-08T08:20:15.930Z,100849.39
2019-06-08T08:22:42.670Z,100865.86
2019-06-08T08:25:09.405Z,100862.52
2019-06-08T08:27:37.595Z,100858.14
2019-06-08T08:30:02.973Z,100845.95
2019-06-08T08:32:29.742Z,100844.98
2019-06-08T08:34:58.739Z,100836.16
2019-06-08T08:37:23.223Z,100825.84
2019-06-08T08:39:50.567Z,100837.92
2019-06-08T08:42:18.012Z,100825.09
2019-06-08T08:44:43.406Z,100837.14
2019-06-08T08:47:10.156Z,100831.50
2019-06-08T08:49:38.039Z,100824.95
2019-06-08T08:52:03.626Z,100845.95
2019-06-08T08:54:30.350Z,100863.03
2019-06-08T08:57:01.637Z,100848.02
2019-06-08T08:59:23.818Z,100852.84
2019-06-08T09:01:51.812Z,100855.88
2019-06-08T09:04:18.515Z,100844.70
2019-06-08T09:06:44.077Z,100847.09
2019-06-08T09:09:10.824Z,100847.45
2019-06-08T09:11:38.356Z,100845.91
2019-06-08T09:14:10.938Z,100856.79
2019-06-08T09:16:32.643Z,100851.64
2019-06-08T09:19:02.151Z,100855.43
2019-06-08T09:21:28.144Z,100863.56
2019-06-08T09:23:53.849Z,100852.67
2019-06-08T09:26:19.638Z,100842.69
2019-06-08T09:28:46.393Z,100852.51
2019-06-08T09:31:13.286Z,100831.94
2019-06-08T09:33:39.875Z,100856.76
2019-06-08T09:36:08.002Z,100864.19
2019-06-08T09:38:33.370Z,100880.39
2019-06-08T09:41:03.439Z,100877.23
2019-06-08T09:43:28.746Z,100881.39
2019-06-08T09:45:54.283Z,100884.81
2019-06-08T09:48:20.323Z,100888.09
2019-06-08T09:50:48.656Z,100885.14
2019-06-08T09:53:23.905Z,100877.72
2019-06-08T09:55:41.380Z,100887.58
2019-06-08T09:58:11.215Z,100882.17
2019-06-08T10:00:34.282Z,100883.56
2019-06-08T10:03:03.851Z,100865.84
2019-06-08T10:05:27.806Z,100884.58
2019-06-08T10:07:54.545Z,100880.98
2019-06-08T10:10:21.262Z,100874.89
2019-06-08T10:12:48.427Z,100875.41
2019-06-08T10:15:14.811Z,100871.95
2019-06-08T10:17:41.556Z,100904.02
2019-06-08T10:20:10.038Z,100891.69
2019-06-08T10:22:35.193Z,100887.02
2019-06-08T10:25:05.386Z,100898.69
2019-06-08T10:27:28.754Z,100896.36
2019-06-08T10:29:58.631Z,100887.06
2019-06-08T10:32:22.273Z,100899.13
2019-06-08T10:34:49.062Z,100883.41
2019-06-08T10:37:18.466Z,100899.80
2019-06-08T10:39:42.577Z,100889.89
2019-06-08T10:42:11.363Z,100900.09
2019-06-08T10:44:38.046Z,100888.67
2019-06-08T10:47:04.068Z,100901.00
2019-06-08T10:49:29.646Z,100896.60
2019-06-08T10:51:59.008Z,100890.93
2019-06-08T10:54:23.194Z,100880.36
2019-06-08T10:56:49.950Z,100889.88
2019-06-08T10:59:18.551Z,100885.06
2019-06-08T11:01:43.470Z,100892.23
2019-06-08T11:04:10.176Z,100888.98
2019-06-08T11:06:39.886Z,100891.41
2019-06-08T11:09:10.200Z,100888.02
2019-06-08T11:11:31.566Z,100893.97
2019-06-08T11:14:00.066Z,100879.12
2019-06-08T11:16:25.075Z,100884.59
2019-06-08T11:18:51.811Z,100883.30
2019-06-08T11:21:19.015Z,100887.94
2019-06-08T11:23:59.861Z,100890.22
2019-06-08T11:26:19.760Z,100896.69
2019-06-08T11:28:38.842Z,100892.71
2019-06-08T11:31:08.427Z,100880.78
2019-06-08T11:33:32.384Z,100879.11
2019-06-08T11:36:02.975Z,100880.14
2019-06-08T11:38:28.710Z,100890.47
2019-06-08T11:40:52.698Z,100889.53
2019-06-08T11:43:19.451Z,100889.48
2019-06-08T11:45:48.081Z,100871.69
2019-06-08T11:48:13.025Z,100897.12
2019-06-08T11:50:42.068Z,100877.97
2019-06-08T11:53:07.825Z,100887.38
2019-06-08T11:55:33.438Z,100883.12
2019-06-08T11:58:00.905Z,100880.03
2019-06-08T12:01:01.867Z,100883.27
2019-06-08T12:03:30.187Z,100873.46
2019-06-08T12:05:54.422Z,100875.83
2019-06-08T12:08:21.199Z,100880.06
2019-06-08T12:10:49.109Z,100882.61
2019-06-08T12:13:17.444Z,100885.34
2019-06-08T12:15:41.559Z,100870.38
2019-06-08T12:18:09.816Z,100879.23
2019-06-08T12:20:37.577Z,100882.17
2019-06-08T12:23:01.939Z,100884.89
2019-06-08T12:25:28.730Z,100876.16
2019-06-08T12:27:55.474Z,100873.45
2019-06-08T12:30:25.830Z,100882.30
2019-06-08T12:32:49.066Z,100883.84
2019-06-08T12:35:17.984Z,100877.45
2019-06-08T12:37:42.650Z,100889.28
2019-06-08T12:40:12.886Z,100875.58
2019-06-08T12:42:38.181Z,100885.45
2019-06-08T12:45:03.270Z,100876.48
2019-06-08T12:47:30.113Z,100884.77
2019-06-08T12:49:58.502Z,100881.00
2019-06-08T12:52:23.901Z,100877.97
2019-06-08T12:54:59.982Z,100883.14
2019-06-08T12:57:19.907Z,100891.83
2019-06-08T12:59:45.522Z,100891.16
2019-06-08T13:02:15.658Z,100902.13
2019-06-08T13:04:38.400Z,100886.89
2019-06-08T13:07:04.653Z,100887.72
2019-06-08T13:09:31.382Z,100883.84
2019-06-08T13:11:59.445Z,100898.89
2019-06-08T13:14:25.047Z,100903.11
2019-06-08T13:16:52.973Z,100896.69
2019-06-08T13:19:18.435Z,100888.19
2019-06-08T13:21:45.214Z,100894.94
2019-06-08T13:24:13.151Z,100889.99
2019-06-08T13:26:38.794Z,100899.22
2019-06-08T13:29:05.525Z,100888.18
2019-06-08T13:31:32.375Z,100900.11
2019-06-08T13:33:59.098Z,100895.12
2019-06-08T13:36:28.868Z,100892.72
2019-06-08T13:38:52.689Z,100908.13
2019-06-08T13:41:24.124Z,100899.36
2019-06-08T13:43:47.814Z,100890.86
2019-06-08T13:46:13.722Z,100897.93
2019-06-08T13:48:39.847Z,100901.62
2019-06-08T13:51:08.409Z,100903.91
2019-06-08T13:53:33.343Z,100895.17
2019-06-08T13:56:00.175Z,100901.44
2019-06-08T13:58:33.029Z,100895.27
2019-06-08T14:00:56.613Z,100890.40
2019-06-08T14:03:21.709Z,100894.00
2019-06-08T14:05:47.819Z,100896.84
2019-06-08T14:08:14.569Z,100892.01
2019-06-08T14:10:40.894Z,100886.94
2019-06-08T14:13:07.646Z,100892.49
2019-06-08T14:15:34.411Z,100898.63
2019-06-08T14:18:01.260Z,100884.16
2019-06-08T14:20:32.475Z,100883.36
2019-06-08T14:22:54.826Z,100874.16
2019-06-08T14:25:22.914Z,100887.13
2019-06-08T14:27:48.494Z,100882.73
2019-06-08T14:30:15.251Z,100893.70
2019-06-08T14:32:42.004Z,100879.66
2019-06-08T14:35:08.972Z,100874.71
2019-06-08T14:37:37.945Z,100889.09
2019-06-08T14:40:02.611Z,100885.91
2019-06-08T14:42:30.527Z,100885.09
2019-06-08T14:44:57.848Z,100885.61
2019-06-08T14:47:22.838Z,100881.31
2019-06-08T14:49:49.646Z,100885.20
2019-06-08T14:52:18.814Z,100885.32
2019-06-08T14:54:43.167Z,100883.33
2019-06-08T14:57:09.942Z,100870.47
2019-06-08T14:59:36.767Z,100871.22
2019-06-08T15:02:03.510Z,100872.52
2019-06-08T15:04:35.975Z,100883.43
2019-06-08T15:06:58.592Z,100868.35
2019-06-08T15:09:23.714Z,100870.63
2019-06-08T15:11:50.469Z,100880.22
2019-06-08T15:14:17.201Z,100871.84
2019-06-08T15:16:43.954Z,100859.59
2019-06-08T15:19:10.766Z,100859.59
2019-06-08T15:21:38.084Z,100855.25
2019-06-08T15:24:04.283Z,100864.53
2019-06-08T15:26:39.580Z,100859.32
2019-06-08T15:28:58.748Z,100852.12
2019-06-08T15:31:25.183Z,100854.86
2019-06-08T15:33:51.238Z,100854.88
2019-06-08T15:36:20.507Z,100845.54
2019-06-08T15:38:44.760Z,100851.90
2019-06-08T15:41:11.493Z,100845.37
2019-06-08T15:43:40.384Z,100837.80
2019-06-08T15:46:04.958Z,100841.69
2019-06-08T15:48:32.877Z,100833.20
2019-06-08T15:50:58.552Z,100840.17
2019-06-08T15:53:26.442Z,100834.02
2019-06-08T15:55:51.961Z,100826.86
2019-06-08T15:58:18.690Z,100825.73
2019-06-08T16:00:45.431Z,100828.81
2019-06-08T16:03:12.158Z,100839.36
2019-06-08T16:05:38.931Z,100834.03
2019-06-08T16:08:05.658Z,100834.19
2019-06-08T16:10:32.411Z,100841.13
2019-06-08T16:12:59.126Z,100837.70
2019-06-08T16:15:26.834Z,100842.76
2019-06-08T16:17:52.615Z,100845.71
2019-06-08T16:20:19.434Z,100840.06
2019-06-08T16:22:46.095Z,100840.52
2019-06-08T16:25:13.010Z,100829.61
2019-06-08T16:27:39.802Z,100835.78
2019-06-08T16:30:09.657Z,100830.69
2019-06-08T16:32:33.561Z,100822.63
2019-06-08T16:35:00.022Z,100821.90
2019-06-08T16:37:27.492Z,100829.37
2019-06-08T16:39:53.498Z,100833.09
2019-06-08T16:42:20.255Z,100839.70
2019-06-08T16:44:46.977Z,100838.61
2019-06-08T16:47:13.722Z,100844.05
2019-06-08T16:49:40.545Z,100846.34
2019-06-08T16:52:07.286Z,100843.87
2019-06-08T16:54:35.093Z,100840.39
2019-06-08T16:57:09.857Z,100842.45
2019-06-08T16:59:28.123Z,100851.67
2019-06-08T17:01:54.215Z,100839.41
2019-06-08T17:04:20.938Z,100844.59
2019-06-08T17:06:47.742Z,100834.66
2019-06-08T17:09:14.494Z,100840.33
2019-06-08T17:11:41.248Z,100846.32
2019-06-08T17:14:08.051Z,100839.63
2019-06-08T17:16:34.797Z,100845.44
2019-06-08T17:19:01.526Z,100841.67
2019-06-08T17:21:28.254Z,100844.34
2019-06-08T17:23:55.082Z,100845.55
2019-06-08T17:26:22.027Z,100844.09
2019-06-08T17:28:48.628Z,100843.75
2019-06-08T17:31:15.409Z,100835.65
2019-06-08T17:33:42.130Z,100849.91
2019-06-08T17:36:08.876Z,100845.44
2019-06-08T17:38:35.654Z,100852.06
2019-06-08T17:41:02.421Z,100857.91
2019-06-08T17:43:29.150Z,100865.13
2019-06-08T17:45:55.887Z,100860.13
2019-06-08T17:48:22.602Z,100855.13
2019-06-08T17:50:49.354Z,100853.61
2019-06-08T17:53:16.198Z,100843.21
2019-06-08T17:55:43.679Z,100839.22
2019-06-08T17:58:09.694Z,100836.11
2019-06-08T18:00:37.459Z,100852.06
2019-06-08T18:03:03.282Z,100858.22
2019-06-08T18:05:30.033Z,100855.95
2019-06-08T18:07:57.870Z,100867.59
2019-06-08T18:10:23.498Z,100863.09
2019-06-08T18:12:50.234Z,100861.54
2019-06-08T18:15:17.447Z,100868.67
2019-06-08T18:17:45.048Z,100866.97
2019-06-08T18:20:10.466Z,100867.66
2019-06-08T18:22:40.991Z,100874.12
2019-06-08T18:25:03.982Z,100877.48
2019-06-08T18:27:30.718Z,100882.56
2019-06-08T18:29:58.209Z,100884.42
2019-06-08T18:32:24.186Z,100886.20
2019-06-08T18:34:50.915Z,100893.06
2019-06-08T18:37:18.110Z,100904.81
2019-06-08T18:39:45.853Z,100914.38
2019-06-08T18:42:11.131Z,100930.64
2019-06-08T18:44:40.775Z,100936.37
2019-06-08T18:47:06.829Z,100947.92
2019-06-08T18:49:31.824Z,100944.20
2019-06-08T18:51:58.546Z,100944.08
2019-06-08T18:54:27.789Z,100954.27
2019-06-08T18:56:52.034Z,100964.59
2019-06-08T18:59:18.774Z,100962.52
2019-06-08T19:01:48.049Z,100960.32
2019-06-08T19:04:12.234Z,100962.28
2019-06-08T19:06:40.575Z,100962.95
2019-06-08T19:09:07.588Z,100963.98
2019-06-08T19:11:32.534Z,100971.64
2019-06-08T19:13:59.288Z,100969.78
2019-06-08T19:16:28.199Z,100964.88
2019-06-08T19:18:52.987Z,100967.97
2019-06-08T19:21:19.506Z,100974.63
2019-06-08T19:23:49.259Z,100973.98
2019-06-08T19:26:12.981Z,100981.42
2019-06-08T19:28:42.864Z,100987.69
2019-06-08T19:31:07.908Z,100986.37
2019-06-08T19:33:33.174Z,100994.59
2019-06-08T19:35:59.918Z,100995.50
2019-06-08T19:38:27.973Z,101004.75
2019-06-08T19:40:53.399Z,100999.48
2019-06-08T19:43:20.133Z,101005.02
2019-06-08T19:45:50.433Z,101002.47
2019-06-08T19:48:13.598Z,101007.91
2019-06-08T19:50:41.334Z,101018.39
2019-06-08T19:53:07.401Z,101014.30
2019-06-08T19:55:33.830Z,101015.11
2019-06-08T19:58:00.574Z,101019.58
2019-06-08T20:00:28.351Z,101021.47
2019-06-08T20:02:55.274Z,101032.24
2019-06-08T20:05:20.810Z,101039.66
2019-06-08T20:07:47.538Z,101043.42
2019-06-08T20:10:14.294Z,101036.53
2019-06-08T20:12:41.208Z,101042.12
2019-06-08T20:15:08.551Z,101050.02
2019-06-08T20:17:34.506Z,101055.94
2019-06-08T20:20:01.266Z,101055.76
2019-06-08T20:22:28.006Z,101061.12
2019-06-08T20:24:55.913Z,101058.59
2019-06-08T20:27:21.926Z,101052.02
2019-06-08T20:29:50.693Z,101055.73
2019-06-08T20:32:17.891Z,101059.02
2019-06-08T20:34:42.450Z,101053.90
2019-06-08T20:37:09.007Z,101062.52
2019-06-08T20:39:38.022Z,101066.78
2019-06-08T20:42:02.462Z,101069.96
2019-06-08T20:44:30.266Z,101070.84
2019-06-08T20:46:57.714Z,101070.55
2019-06-08T20:49:22.690Z,101066.70
2019-06-08T20:51:50.893Z,101070.52
2019-06-08T20:54:17.261Z,101063.45
2019-06-08T20:56:43.023Z,101054.10
2019-06-08T20:59:09.654Z,101066.95
2019-06-08T21:01:36.390Z,101062.20
2019-06-08T21:04:03.166Z,101063.22
2019-06-08T21:06:29.917Z,101067.05
2019-06-08T21:08:57.944Z,101076.52
2019-06-08T21:11:23.415Z,101078.29
2019-06-08T21:13:52.376Z,101084.60
2019-06-08T21:16:18.210Z,101080.84
2019-06-08T21:18:44.698Z,101083.12
2019-06-08T21:21:10.474Z,101079.30
2019-06-08T21:23:37.205Z,101073.08
2019-06-08T21:26:03.950Z,101074.06
2019-06-08T21:28:30.683Z,101078.73
2019-06-08T21:31:01.862Z,101073.30
2019-06-08T21:33:24.255Z,101085.84
2019-06-08T21:35:53.476Z,101091.41
2019-06-08T21:38:23.745Z,101085.98
2019-06-08T21:40:44.591Z,101089.66
2019-06-08T21:43:11.462Z,101087.72
2019-06-08T21:45:38.284Z,101088.56
2019-06-08T21:48:07.357Z,101088.50
2019-06-08T21:50:31.738Z,101080.06
2019-06-08T21:53:00.242Z,101081.18
2019-06-08T21:55:27.179Z,101087.67
2019-06-08T21:57:53.929Z,101082.61
2019-06-08T22:00:35.864Z,101089.73
2019-06-08T22:02:47.836Z,101076.23
2019-06-08T22:05:12.442Z,101085.19
2019-06-08T22:07:39.221Z,101094.66
2019-06-08T22:10:07.507Z,101087.38
2019-06-08T22:12:32.878Z,101087.87
2019-06-08T22:15:00.988Z,101085.19
2019-06-08T22:17:27.746Z,101089.24
2019-06-08T22:19:53.284Z,101087.67
2019-06-08T22:22:20.038Z,101086.06
2019-06-08T22:24:47.475Z,101088.03
2019-06-08T22:27:13.608Z,101082.08
2019-06-08T22:29:40.385Z,101086.42
2019-06-08T22:32:07.623Z,101091.39
2019-06-08T22:34:34.002Z,101090.73
2019-06-08T22:37:00.791Z,101086.64
2019-06-08T22:39:28.167Z,101090.35
2019-06-08T22:41:56.075Z,101083.53
2019-06-08T22:44:21.260Z,101081.78
2019-06-08T22:46:48.062Z,101080.55
2019-06-08T22:49:15.397Z,101083.35
2019-06-08T22:51:41.645Z,101086.44
2019-06-08T22:54:08.435Z,101079.38
2019-06-08T22:56:37.219Z,101088.88
2019-06-08T22:59:04.607Z,101086.20
2019-06-08T23:01:28.759Z,101080.52
2019-06-08T23:03:56.981Z,101075.51
2019-06-08T23:06:22.271Z,101067.63
2019-06-08T23:08:49.022Z,101068.42
2019-06-08T23:11:17.852Z,101072.73
2019-06-08T23:13:42.611Z,101071.59
2019-06-08T23:16:09.420Z,101070.66
2019-06-08T23:18:37.303Z,101077.11
2019-06-08T23:21:04.264Z,101074.70
2019-06-08T23:23:29.681Z,101069.75
2019-06-08T23:26:00.331Z,101073.70
2019-06-08T23:28:23.223Z,101072.94
2019-06-08T23:31:03.673Z,101073.90
2019-06-08T23:33:18.883Z,101072.41
2019-06-08T23:36:14.520Z,101067.47
2019-06-08T23:38:10.319Z,101064.22
2019-06-08T23:40:37.865Z,101069.73
2019-06-08T23:43:04.252Z,101074.01
2019-06-08T23:45:30.510Z,101075.11
2019-06-08T23:47:59.909Z,101076.16
2019-06-08T23:50:24.053Z,101078.98
2019-06-08T23:52:50.769Z,101087.02
2019-06-08T23:55:18.137Z,101088.48
2019-06-08T23:57:44.268Z,101084.22
